Friday, September 19, 2014
09:55 UTC
  |  Log In   |  Register Free
Airport Search:

Henry Post Aaf (Fort Sill) Airport
(KFSI)

Henry Post Aaf (Fort Sill) Airport Diagram
No Airport Diagram Available

FAA data valid effective September 18, 2014 - November 13, 2014 (unless otherwise noted).

 
 
 
 
 
 
 
 
 
 
 
 
 
 

Current Aviation Weather for Henry Post Aaf (Fort Sill) Airport (KFSI)

The most recent METAR observation for KFSI was updated at: 0909
METAR Summary (Translated METAR)
KFSI
190255Z 13005KT 10SM FEW150 OVC250 23/20 A2995 RMK AO2A SLP126 T02300197 53022
KLAW
190853Z 00000KT 10SM BKN029 20/18 A2994 RMK AO2 SLP128 T02000183 56005
(5.0 nm SW from KFSI)
KDUC
190855Z AUTO 00000KT 10SM CLR 21/21 A2994 RMK AO2
(24.4 nm SE from KFSI)
TAF Summary (Translated TAF)
KFSI
1903/2003 16006KT 9999 FEW150 OVC250 QNH2992INS BECMG 1914/1915 15010G15KT 9999 FEW040 QNH2993INS BECMG 2001/2002 13009KT 9999 SCT030 QNH2989INS TX30/1921Z TN19/1912Z AMD 190302 LAST NO AMDS AFT 1903 NEXT 1913
KLAW
(5.0 nm SW from KFSI)
190522Z 1906/2006 15006KT P6SM BKN300 FM191700 15012KT P6SM SCT040 SCT300 FM200000 13010KT P6SM SCT080 BKN250
  Airport Weather Conditions for KFSI

 Current Weather at FSI
73° F
Overcast
Southeast winds at 5.8 mph
FSI NOAA Radar

Pressure: 29.95 in
Humidity: 82%
Wind: Southeast at 5.8 MPH (5 KT)
Dew Point: 67.5°F
Visibility: 10.00 mi


Airport Weather Forecast for KFSI

Translated METAR and TAF for KFSI
Translated METAR for KFSI (0949 UTC 19 September 2014)
found at http://aviationweather.gov/adds/metars/
 
Forecast for: KFSI (FORT SILL , OK, US)
TAF Text: TAF AMD KFSI 1903/2003 16006KT 9999 FEW150 OVC250 QNH2992INS
Forecast period: 0300 to 1400 UTC 19 September 2014
Forecast type: FROM: standard forecast or significant change
Winds: from the SSE (160 degrees) at 7 MPH (6 knots; 3.1 m/s)
Visibility: 6 or more miles (10+ km)
Ceiling: 25000 feet AGL
Clouds: few clouds at 15000 feet AGL
overcast cloud deck at 25000 feet AGL
Weather: no significant weather forecast for this period
TAF Text: BECMG 1914/1915 15010G15KT 9999 FEW040 QNH2993INS
Forecast period: 1400 UTC 19 September 2014 to 0100 UTC 20 September 2014
Forecast type: BECOMING: Conditions expected to become as follows by 1500 UTC 19 September 2014
Winds: from the SSE (150 degrees) at 12 MPH (10 knots; 5.2 m/s)
gusting to 17 MPH (15 knots; 7.8 m/s)
Visibility: 6 or more miles (10+ km)
Clouds: few clouds at 4000 feet AGL
Weather: no significant weather forecast for this period
TAF Text: BECMG 2001/2002 13009KT 9999 SCT030 QNH2989INS TX30/1921Z TN19/1912Z AMD 190302 LAST NO AMDS AFT 1903 NEXT 1913
Forecast period: 0100 to 0300 UTC 20 September 2014
Forecast type: BECOMING: Conditions expected to become as follows by 0200 UTC 20 September 2014
Winds: from the SE (130 degrees) at 10 MPH (9 knots; 4.7 m/s)
Visibility: 6 or more miles (10+ km)
Clouds: scattered clouds at 3000 feet AGL
Weather: no significant weather forecast for this period
Translated TAF for KFSI

There is no translated TAF available for this airport

Find All Airport Services Find A Hotel Find A Rental Car Find A Golf Course Find A Restaurant $100 Hamburger



FBO's on the Field
FBO Company Facility Photos Services Transportation Aviation Fuel Prices: Prices include tax
Catering Weather Repair Courtesy Rental Type 100LL JetA JetA+ MOGAS 8087
 
Add another FBO Facility Photos Catering Weather Repair Courtesy Rental Type 100LL JetA JetA+ MOGAS 8087
Services Transportation Aviation Fuel Prices: Prices include tax
There are no FBO's currently reporting fuel at FSI. List your FBO now


model-print
model-print
model-print
model-print